createdAt,value
2018-07-01T00:02:03.934Z,45.90
2018-07-01T00:04:32.221Z,46.00
2018-07-01T00:07:00.485Z,46.20
2018-07-01T00:09:28.743Z,46.20
2018-07-01T00:11:57.500Z,46.40
2018-07-01T00:14:25.758Z,46.40
2018-07-01T00:16:54.026Z,46.40
2018-07-01T00:21:50.276Z,46.80
2018-07-01T00:24:18.592Z,46.80
2018-07-01T00:26:46.878Z,46.90
2018-07-01T00:29:15.155Z,47.00
2018-07-01T00:31:43.442Z,47.00
2018-07-01T00:34:11.683Z,47.00
2018-07-01T00:36:39.973Z,47.40
2018-07-01T00:39:10.692Z,47.40
2018-07-01T00:41:38.952Z,47.50
2018-07-01T00:44:07.855Z,47.60
2018-07-01T00:46:36.743Z,47.80
2018-07-01T00:49:05.936Z,47.70
2018-07-01T00:51:34.732Z,47.90
2018-07-01T00:54:03.624Z,48.10
2018-07-01T00:56:31.965Z,48.30
2018-07-01T00:59:00.287Z,48.50
2018-07-01T01:01:28.566Z,48.50
2018-07-01T01:03:56.855Z,48.80
2018-07-01T01:06:25.158Z,49.00
2018-07-01T01:08:53.447Z,49.00
2018-07-01T01:11:21.736Z,49.40
2018-07-01T01:13:50.000Z,49.30
2018-07-01T01:18:46.310Z,49.50
2018-07-01T01:21:14.610Z,49.40
2018-07-01T01:23:43.038Z,49.40
2018-07-01T01:26:11.333Z,49.30
2018-07-01T01:28:39.634Z,49.70
2018-07-01T01:31:07.881Z,50.10
2018-07-01T01:33:36.212Z,50.20
2018-07-01T01:36:04.543Z,50.30
2018-07-01T01:38:34.945Z,50.20
2018-07-01T01:41:12.962Z,50.40
2018-07-01T01:43:44.843Z,50.60
2018-07-01T01:46:31.271Z,50.80
2018-07-01T01:49:03.725Z,51.20
2018-07-01T01:51:42.541Z,51.30
2018-07-01T01:54:15.260Z,51.50
2018-07-01T01:59:26.228Z,52.10
2018-07-01T02:02:05.001Z,52.20
2018-07-01T02:04:42.259Z,52.50
2018-07-01T02:09:43.519Z,53.10
2018-07-01T02:15:05.628Z,53.30
2018-07-01T02:17:36.441Z,53.40
2018-07-01T02:20:04.908Z,53.80
2018-07-01T02:22:38.326Z,54.00
2018-07-01T02:25:10.569Z,54.10
2018-07-01T02:27:38.879Z,54.00
2018-07-01T02:30:07.160Z,54.20
2018-07-01T02:32:35.426Z,54.40
2018-07-01T02:35:03.714Z,54.70
2018-07-01T02:37:31.999Z,54.80
2018-07-01T02:40:00.291Z,54.80
2018-07-01T02:42:28.537Z,54.90
2018-07-01T02:44:56.872Z,55.10
2018-07-01T02:47:25.119Z,55.30
2018-07-01T02:49:53.772Z,55.50
2018-07-01T02:52:22.008Z,55.70
2018-07-01T02:54:50.256Z,55.90
2018-07-01T02:57:18.541Z,56.00
2018-07-01T02:59:46.779Z,56.40
2018-07-01T03:02:15.193Z,56.70
2018-07-01T03:04:43.472Z,57.20
2018-07-01T03:07:11.725Z,57.20
2018-07-01T03:09:40.578Z,57.90
2018-07-01T03:12:08.832Z,58.30
2018-07-01T03:14:37.083Z,58.30
2018-07-01T03:17:05.411Z,58.10
2018-07-01T03:19:33.651Z,58.00
2018-07-01T03:24:29.907Z,57.80
2018-07-01T03:26:58.171Z,58.10
2018-07-01T03:29:26.463Z,58.30
2018-07-01T03:31:54.819Z,58.60
2018-07-01T03:34:23.058Z,59.00
2018-07-01T03:36:51.323Z,59.30
2018-07-01T03:39:19.579Z,59.40
2018-07-01T03:41:47.848Z,59.80
2018-07-01T03:44:16.142Z,59.90
2018-07-01T03:46:44.390Z,60.30
2018-07-01T03:51:40.739Z,60.80
2018-07-01T03:54:09.012Z,60.90
2018-07-01T03:56:37.288Z,61.20
2018-07-01T03:59:06.542Z,61.80
2018-07-01T04:01:34.815Z,61.90
2018-07-01T04:04:03.074Z,61.90
2018-07-01T04:06:31.367Z,62.20
2018-07-01T04:08:59.635Z,62.60
2018-07-01T04:11:27.860Z,63.00
2018-07-01T04:13:56.158Z,63.50
2018-07-01T04:16:24.408Z,63.20
2018-07-01T04:18:52.659Z,63.30
2018-07-01T04:21:20.938Z,63.10
2018-07-01T04:23:49.263Z,63.30
2018-07-01T04:26:17.541Z,63.20
2018-07-01T04:28:45.765Z,63.40
2018-07-01T04:31:14.143Z,63.90
2018-07-01T04:33:42.376Z,63.60
2018-07-01T04:36:10.674Z,64.10
2018-07-01T04:38:38.951Z,64.10
2018-07-01T04:41:07.301Z,64.70
2018-07-01T04:43:35.575Z,63.00
2018-07-01T04:46:03.819Z,63.80
2018-07-01T04:48:32.134Z,63.20
2018-07-01T04:51:00.430Z,62.60
2018-07-01T04:53:28.684Z,62.50
2018-07-01T04:55:57.056Z,61.60
2018-07-01T04:58:25.342Z,61.50
2018-07-01T05:00:53.585Z,60.90
2018-07-01T05:03:21.894Z,61.20
2018-07-01T05:05:50.181Z,60.80
2018-07-01T05:08:18.443Z,61.40
2018-07-01T05:10:47.045Z,61.10
2018-07-01T05:13:15.290Z,61.30
2018-07-01T05:15:43.803Z,60.60
2018-07-01T05:18:12.076Z,60.00
2018-07-01T05:20:40.339Z,60.20
2018-07-01T05:23:08.561Z,60.40
2018-07-01T05:25:36.839Z,60.50
2018-07-01T05:28:05.118Z,60.70
2018-07-01T05:30:33.371Z,59.60
2018-07-01T05:33:01.633Z,60.50
2018-07-01T05:35:29.890Z,59.80
2018-07-01T05:37:58.215Z,59.90
2018-07-01T05:40:26.505Z,59.30
2018-07-01T05:42:54.728Z,59.40
2018-07-01T05:45:22.971Z,59.00
2018-07-01T05:47:51.271Z,59.10
2018-07-01T05:50:19.570Z,58.80
2018-07-01T05:52:47.850Z,58.90
2018-07-01T05:55:16.132Z,58.60
2018-07-01T05:57:44.407Z,58.80
2018-07-01T06:00:12.660Z,58.60
2018-07-01T06:02:40.916Z,58.70
2018-07-01T06:05:09.304Z,58.10
2018-07-01T06:07:37.669Z,57.80
2018-07-01T06:10:05.969Z,58.20
2018-07-01T06:12:34.227Z,57.70
2018-07-01T06:15:02.523Z,57.90
2018-07-01T06:17:30.847Z,57.50
2018-07-01T06:19:59.109Z,58.00
2018-07-01T06:22:27.459Z,57.20
2018-07-01T06:24:56.778Z,57.10
2018-07-01T06:27:25.043Z,56.60
2018-07-01T06:29:53.410Z,56.60
2018-07-01T06:32:22.004Z,56.00
2018-07-01T06:34:50.316Z,55.90
2018-07-01T06:37:18.584Z,55.70
2018-07-01T06:39:46.878Z,55.20
2018-07-01T06:44:43.150Z,54.80
2018-07-01T06:47:11.399Z,54.60
2018-07-01T06:52:07.812Z,52.80
2018-07-01T06:54:36.076Z,52.40
2018-07-01T06:57:04.424Z,52.00
2018-07-01T06:59:32.702Z,51.30
2018-07-01T07:02:00.997Z,51.10
2018-07-01T07:04:29.268Z,49.90
2018-07-01T07:06:57.540Z,49.20
2018-07-01T07:09:25.736Z,48.40
2018-07-01T07:11:54.090Z,47.30
2018-07-01T07:14:23.947Z,47.30
2018-07-01T07:16:52.727Z,46.50
2018-07-01T07:19:21.126Z,46.30
2018-07-01T07:21:49.463Z,44.90
2018-07-01T07:24:17.772Z,44.90
2018-07-01T07:26:46.015Z,45.00
2018-07-01T07:29:14.296Z,44.50
2018-07-01T07:31:42.659Z,44.60
2018-07-01T07:34:10.958Z,43.80
2018-07-01T07:36:39.227Z,43.00
2018-07-01T07:39:09.027Z,42.90
2018-07-01T07:41:37.608Z,42.60
2018-07-01T07:44:06.408Z,41.60
2018-07-01T07:46:35.855Z,41.40
2018-07-01T07:49:04.604Z,41.00
2018-07-01T07:51:33.692Z,40.90
2018-07-01T07:54:08.917Z,40.80
2018-07-01T07:56:37.300Z,40.10
2018-07-01T07:59:05.689Z,40.10
2018-07-01T08:01:33.981Z,40.30
2018-07-01T08:04:02.247Z,40.20
2018-07-01T08:06:30.579Z,39.50
2018-07-01T08:08:58.863Z,39.40
2018-07-01T08:11:27.111Z,39.70
2018-07-01T08:13:55.356Z,38.70
2018-07-01T08:16:25.098Z,38.50
2018-07-01T08:21:21.357Z,37.60
2018-07-01T08:23:49.672Z,36.70
2018-07-01T08:26:18.014Z,36.80
2018-07-01T08:28:46.314Z,36.10
2018-07-01T08:31:14.666Z,35.90
2018-07-01T08:33:43.249Z,35.10
2018-07-01T08:36:12.071Z,35.20
2018-07-01T08:38:40.668Z,34.80
2018-07-01T08:41:08.944Z,34.70
2018-07-01T08:43:37.300Z,34.90
2018-07-01T08:46:05.582Z,34.20
2018-07-01T08:48:33.941Z,34.30
2018-07-01T08:51:02.503Z,33.90
2018-07-01T08:53:30.792Z,32.90
2018-07-01T08:55:59.306Z,32.80
2018-07-01T08:58:27.626Z,32.20
2018-07-01T09:00:55.968Z,32.60
2018-07-01T09:03:24.270Z,32.30
2018-07-01T09:05:52.553Z,32.60
2018-07-01T09:08:20.853Z,32.60
2018-07-01T09:10:49.463Z,32.60
2018-07-01T09:13:17.720Z,31.30
2018-07-01T09:15:46.008Z,32.10
2018-07-01T09:18:14.325Z,31.40
2018-07-01T09:20:42.836Z,30.60
2018-07-01T09:23:11.280Z,30.50
2018-07-01T09:25:40.116Z,30.60
2018-07-01T09:28:08.817Z,30.60
2018-07-01T09:30:40.124Z,31.00
2018-07-01T09:33:09.846Z,30.30
2018-07-01T09:35:39.460Z,28.80
2018-07-01T09:40:35.728Z,30.20
2018-07-01T09:43:05.073Z,29.60
2018-07-01T09:45:33.342Z,29.50
2018-07-01T09:48:01.630Z,29.20
2018-07-01T09:50:29.975Z,29.10
2018-07-01T09:52:58.639Z,29.30
2018-07-01T09:55:26.932Z,29.30
2018-07-01T09:57:55.193Z,29.10
2018-07-01T10:00:23.425Z,28.60
2018-07-01T10:02:51.727Z,28.30
2018-07-01T10:05:19.956Z,28.20
2018-07-01T10:07:48.265Z,27.80
2018-07-01T10:10:16.454Z,28.10
2018-07-01T10:12:44.697Z,28.00
2018-07-01T10:15:13.033Z,27.50
2018-07-01T10:17:41.295Z,27.60
2018-07-01T10:20:09.557Z,27.30
2018-07-01T10:22:37.780Z,27.90
2018-07-01T10:25:06.075Z,27.00
2018-07-01T10:27:34.342Z,26.80
2018-07-01T10:30:02.600Z,26.80
2018-07-01T10:32:30.928Z,27.30
2018-07-01T10:34:59.188Z,26.70
2018-07-01T10:37:27.474Z,25.90
2018-07-01T10:39:55.818Z,26.00
2018-07-01T10:42:24.146Z,26.00
2018-07-01T10:44:52.402Z,25.40
2018-07-01T10:47:20.691Z,25.80
2018-07-01T10:52:17.287Z,26.60
2018-07-01T10:54:45.596Z,26.70
2018-07-01T10:57:13.911Z,27.20
2018-07-01T10:59:42.231Z,26.30
2018-07-01T11:02:10.531Z,25.40
2018-07-01T11:04:38.825Z,25.40
2018-07-01T11:07:07.073Z,25.80
2018-07-01T11:09:35.337Z,25.90
2018-07-01T11:12:03.590Z,26.40
2018-07-01T11:14:31.861Z,26.40
2018-07-01T11:17:00.133Z,25.00
2018-07-01T11:19:28.386Z,25.50
2018-07-01T11:21:56.672Z,25.20
2018-07-01T11:24:24.952Z,24.90
2018-07-01T11:26:53.424Z,25.20
2018-07-01T11:29:21.640Z,25.90
2018-07-01T11:31:49.868Z,25.50
2018-07-01T11:36:46.148Z,25.80
2018-07-01T11:39:14.403Z,25.90
2018-07-01T11:41:42.696Z,25.90
2018-07-01T11:44:10.944Z,26.10
2018-07-01T11:46:39.230Z,25.40
2018-07-01T11:49:07.538Z,25.70
2018-07-01T11:51:35.802Z,25.70
2018-07-01T11:54:04.089Z,25.40
2018-07-01T11:56:32.396Z,25.10
2018-07-01T11:59:00.708Z,24.80
2018-07-01T12:03:57.010Z,24.80
2018-07-01T12:06:25.298Z,25.10
2018-07-01T12:08:53.576Z,25.70
2018-07-01T12:11:21.867Z,25.20
2018-07-01T12:13:50.062Z,25.00
2018-07-01T12:16:18.318Z,24.60
2018-07-01T12:18:46.612Z,25.40
2018-07-01T12:21:14.860Z,25.30
2018-07-01T12:23:43.280Z,24.90
2018-07-01T12:26:11.430Z,25.00
2018-07-01T12:28:39.821Z,25.60
2018-07-01T12:31:08.081Z,25.40
2018-07-01T12:36:04.357Z,25.60
2018-07-01T12:38:32.622Z,25.90
2018-07-01T12:41:00.905Z,25.70
2018-07-01T12:43:29.161Z,25.90
2018-07-01T12:45:57.747Z,25.60
2018-07-01T12:48:26.038Z,25.60
2018-07-01T12:50:54.283Z,25.40
2018-07-01T12:55:50.604Z,26.00
2018-07-01T12:58:18.904Z,25.30
2018-07-01T13:00:47.132Z,25.10
2018-07-01T13:03:16.346Z,25.50
2018-07-01T13:05:44.699Z,25.60
2018-07-01T13:08:13.076Z,26.60
2018-07-01T13:10:41.340Z,27.20
2018-07-01T13:13:09.672Z,28.00
2018-07-01T13:15:38.725Z,28.50
2018-07-01T13:18:07.049Z,28.80
2018-07-01T13:20:35.806Z,29.10
2018-07-01T13:23:04.092Z,29.50
2018-07-01T13:25:32.313Z,29.60
2018-07-01T13:30:29.012Z,28.50
2018-07-01T13:32:57.324Z,28.60
2018-07-01T13:35:25.627Z,29.50
2018-07-01T13:37:54.136Z,29.50
2018-07-01T13:40:22.409Z,29.50
2018-07-01T13:42:50.715Z,29.90
2018-07-01T13:45:18.880Z,29.70
2018-07-01T13:47:47.192Z,30.00
2018-07-01T13:50:15.428Z,29.60
2018-07-01T13:52:43.693Z,29.30
2018-07-01T13:55:11.919Z,28.90
2018-07-01T13:57:41.168Z,29.90
2018-07-01T14:00:09.612Z,29.50
2018-07-01T14:02:37.968Z,29.60
2018-07-01T14:05:06.261Z,30.60
2018-07-01T14:07:35.162Z,29.30
2018-07-01T14:10:03.520Z,29.50
2018-07-01T14:12:31.788Z,29.20
2018-07-01T14:15:00.087Z,29.80
2018-07-01T14:19:56.359Z,29.70
2018-07-01T14:24:52.621Z,30.10
2018-07-01T14:27:20.957Z,30.00
2018-07-01T14:29:49.322Z,30.40
2018-07-01T14:32:17.503Z,30.30
2018-07-01T14:34:45.795Z,29.40
2018-07-01T14:37:14.047Z,29.90
2018-07-01T14:39:42.327Z,30.00
2018-07-01T14:42:10.580Z,30.10
2018-07-01T14:44:38.998Z,31.30
2018-07-01T14:47:07.280Z,31.00
2018-07-01T14:49:35.633Z,30.00
2018-07-01T14:54:32.046Z,30.00
2018-07-01T14:57:00.296Z,29.40
2018-07-01T14:59:28.740Z,29.40
2018-07-01T15:04:25.045Z,29.50
2018-07-01T15:06:53.419Z,29.40
2018-07-01T15:09:21.663Z,30.00
2018-07-01T15:11:49.992Z,30.00
2018-07-01T15:14:18.292Z,29.50
2018-07-01T15:16:46.562Z,29.60
2018-07-01T15:19:14.824Z,29.80
2018-07-01T15:21:43.076Z,29.60
2018-07-01T15:24:11.354Z,30.20
2018-07-01T15:26:39.946Z,30.50
2018-07-01T15:29:08.344Z,31.90
2018-07-01T15:31:36.886Z,31.50
2018-07-01T15:34:05.237Z,30.70
2018-07-01T15:36:33.539Z,30.30
2018-07-01T15:39:02.837Z,31.40
2018-07-01T15:41:31.238Z,29.70
2018-07-01T15:43:59.536Z,29.40
2018-07-01T15:46:27.850Z,29.50
2018-07-01T15:48:56.116Z,29.40
2018-07-01T15:51:24.380Z,29.60
2018-07-01T15:56:20.752Z,30.50
2018-07-01T15:58:49.008Z,30.10
2018-07-01T16:01:17.276Z,30.00
2018-07-01T16:03:45.544Z,29.60
2018-07-01T16:06:13.786Z,29.00
2018-07-01T16:08:42.035Z,29.50
2018-07-01T16:11:10.436Z,29.70
2018-07-01T16:13:38.715Z,29.90
2018-07-01T16:16:07.054Z,30.50
2018-07-01T16:21:03.698Z,30.60
2018-07-01T16:26:05.579Z,30.30
2018-07-01T16:28:41.571Z,30.60
2018-07-01T16:31:09.948Z,30.80
2018-07-01T16:33:38.268Z,30.50
2018-07-01T16:36:06.515Z,30.30
2018-07-01T16:38:34.819Z,30.50
2018-07-01T16:41:03.165Z,31.00
2018-07-01T16:43:31.424Z,31.30
2018-07-01T16:46:03.758Z,31.40
2018-07-01T16:48:32.458Z,31.00
2018-07-01T16:51:00.983Z,31.60
2018-07-01T16:53:29.396Z,30.70
2018-07-01T16:55:57.879Z,30.70
2018-07-01T16:58:26.148Z,30.60
2018-07-01T17:00:54.464Z,31.60
2018-07-01T17:03:22.956Z,31.70
2018-07-01T17:05:51.530Z,31.70
2018-07-01T17:08:19.767Z,31.80
2018-07-01T17:10:48.073Z,32.00
2018-07-01T17:13:16.360Z,32.00
2018-07-01T17:15:44.600Z,31.80
2018-07-01T17:18:12.950Z,31.90
2018-07-01T17:20:41.555Z,31.80
2018-07-01T17:23:10.232Z,31.90
2018-07-01T17:25:58.252Z,31.50
2018-07-01T17:28:26.727Z,32.00
2018-07-01T17:31:00.444Z,32.30
2018-07-01T17:33:29.623Z,32.40
2018-07-01T17:35:58.615Z,32.50
2018-07-01T17:38:26.987Z,32.60
2018-07-01T17:40:58.963Z,32.30
2018-07-01T17:46:18.518Z,32.70
2018-07-01T17:48:46.925Z,32.80
2018-07-01T17:51:15.226Z,32.90
2018-07-01T17:53:51.365Z,33.40
2018-07-01T17:56:19.600Z,33.40
2018-07-01T18:01:16.067Z,33.00
2018-07-01T18:03:44.354Z,33.30
2018-07-01T18:06:13.091Z,33.50
2018-07-01T18:08:41.733Z,33.70
2018-07-01T18:11:10.307Z,33.80
2018-07-01T18:13:39.106Z,34.00
2018-07-01T18:16:08.043Z,34.00
2018-07-01T18:18:36.693Z,34.30
2018-07-01T18:21:05.211Z,34.20
2018-07-01T18:24:02.968Z,34.60
2018-07-01T18:26:03.377Z,35.50
2018-07-01T18:33:28.422Z,35.60
2018-07-01T18:35:56.936Z,34.80
2018-07-01T18:38:25.535Z,34.90
2018-07-01T18:40:54.117Z,34.90
2018-07-01T18:43:22.608Z,35.30
2018-07-01T18:45:51.182Z,35.20
2018-07-01T18:48:20.159Z,35.90
2018-07-01T18:50:48.671Z,35.60
2018-07-01T18:53:17.236Z,36.10
2018-07-01T18:55:45.795Z,37.00
2018-07-01T18:58:14.418Z,36.70
2018-07-01T19:00:42.943Z,36.70
2018-07-01T19:03:11.466Z,36.90
2018-07-01T19:05:39.977Z,37.70
2018-07-01T19:08:08.533Z,37.00
2018-07-01T19:10:37.042Z,38.00
2018-07-01T19:13:05.523Z,37.80
2018-07-01T19:15:34.036Z,37.90
2018-07-01T19:18:02.535Z,38.10
2018-07-01T19:20:31.052Z,38.30
2018-07-01T19:23:00.693Z,38.70
2018-07-01T19:25:29.483Z,38.90
2018-07-01T19:27:58.161Z,39.50
2018-07-01T19:32:55.278Z,40.00
2018-07-01T19:35:23.858Z,40.30
2018-07-01T19:37:52.509Z,40.20
2018-07-01T19:40:21.065Z,40.10
2018-07-01T19:42:49.638Z,40.10
2018-07-01T19:45:18.174Z,40.40
2018-07-01T19:47:46.697Z,40.50
2018-07-01T19:50:15.351Z,40.70
2018-07-01T19:52:44.081Z,40.70
2018-07-01T19:55:12.609Z,40.90
2018-07-01T19:57:41.143Z,40.90
2018-07-01T20:00:09.704Z,40.90
2018-07-01T20:02:38.275Z,41.00
2018-07-01T20:05:06.824Z,41.20
2018-07-01T20:07:35.326Z,41.30
2018-07-01T20:10:03.877Z,41.50
2018-07-01T20:15:00.757Z,41.50
2018-07-01T20:17:29.466Z,41.60
2018-07-01T20:19:57.917Z,41.80
2018-07-01T20:22:26.312Z,41.60
2018-07-01T20:24:54.651Z,41.50
2018-07-01T20:27:22.980Z,41.50
2018-07-01T20:32:19.308Z,41.30
2018-07-01T20:34:47.628Z,41.10
2018-07-01T20:37:15.949Z,41.30
2018-07-01T20:39:44.213Z,41.60
2018-07-01T20:42:12.611Z,41.60
2018-07-01T20:44:40.867Z,41.30
2018-07-01T20:47:09.088Z,41.50
2018-07-01T20:49:37.311Z,41.50
2018-07-01T20:52:05.768Z,41.60
2018-07-01T20:54:34.141Z,41.40
2018-07-01T20:57:02.402Z,41.90
2018-07-01T20:59:30.670Z,42.00
2018-07-01T21:01:58.997Z,42.00
2018-07-01T21:04:27.261Z,42.00
2018-07-01T21:06:55.561Z,42.00
2018-07-01T21:09:23.882Z,41.90
2018-07-01T21:11:52.535Z,41.80
2018-07-01T21:14:20.814Z,41.80
2018-07-01T21:16:49.095Z,41.60
2018-07-01T21:19:17.418Z,41.70
2018-07-01T21:21:45.688Z,41.70
2018-07-01T21:24:14.027Z,41.50
2018-07-01T21:26:42.349Z,41.60
2018-07-01T21:29:11.034Z,41.60
2018-07-01T21:31:39.321Z,41.50
2018-07-01T21:34:07.615Z,41.60
2018-07-01T21:36:35.893Z,41.50
2018-07-01T21:39:06.380Z,42.10
2018-07-01T21:41:34.666Z,42.10
2018-07-01T21:44:02.990Z,42.40
2018-07-01T21:46:31.283Z,42.30
2018-07-01T21:48:59.704Z,42.80
2018-07-01T21:51:28.014Z,42.60
2018-07-01T21:53:56.335Z,42.60
2018-07-01T21:56:24.735Z,42.60
2018-07-01T21:58:53.158Z,42.80
2018-07-01T22:01:21.485Z,43.20
2018-07-01T22:03:49.727Z,43.30
2018-07-01T22:06:18.969Z,43.40
2018-07-01T22:08:47.189Z,43.80
2018-07-01T22:11:57.968Z,43.90
2018-07-01T22:14:32.334Z,44.10
2018-07-01T22:17:01.001Z,44.20
2018-07-01T22:19:29.560Z,44.20
2018-07-01T22:21:58.307Z,44.30
2018-07-01T22:24:27.964Z,44.50
2018-07-01T22:26:56.214Z,44.40
2018-07-01T22:29:24.424Z,44.70
2018-07-01T22:31:52.666Z,44.90
2018-07-01T22:34:21.275Z,44.90
2018-07-01T22:36:49.864Z,45.20
2018-07-01T22:39:20.183Z,45.20
2018-07-01T22:41:49.782Z,45.30
2018-07-01T22:44:17.995Z,45.60
2018-07-01T22:46:46.851Z,45.60
2018-07-01T22:49:15.063Z,45.80
2018-07-01T22:51:43.331Z,46.00
2018-07-01T22:54:11.570Z,46.00
2018-07-01T22:56:39.813Z,46.10
2018-07-01T22:59:08.081Z,46.20
2018-07-01T23:01:44.834Z,46.30
2018-07-01T23:04:13.043Z,46.60
2018-07-01T23:06:41.382Z,46.50
2018-07-01T23:09:09.580Z,46.70
2018-07-01T23:11:37.781Z,46.80
2018-07-01T23:14:05.998Z,47.00
2018-07-01T23:16:34.215Z,47.10
2018-07-01T23:19:02.457Z,47.10
2018-07-01T23:21:30.684Z,47.30
2018-07-01T23:26:26.892Z,47.50
2018-07-01T23:28:55.094Z,47.80
2018-07-01T23:31:23.304Z,47.80
2018-07-01T23:33:51.516Z,48.20
2018-07-01T23:36:19.728Z,48.30
2018-07-01T23:38:47.974Z,49.00
2018-07-01T23:41:16.201Z,49.20
2018-07-01T23:43:44.432Z,48.60
2018-07-01T23:46:12.702Z,48.70
2018-07-01T23:48:41.006Z,49.00
2018-07-01T23:51:09.284Z,49.10
2018-07-01T23:53:37.561Z,49.30
2018-07-01T23:56:06.067Z,49.50
2018-07-01T23:58:34.342Z,49.60
